Time,TemperatureF,DewpointF,PressureIn,WindDirection,WindDirectionDegrees,WindSpeedMPH,WindSpeedGustMPH,Humidity,HourlyPrecipIn,Conditions,Clouds,dailyrainin,SolarRadiationWatts/m^2,SoftwareType,DateUTC
2013-04-27 18:33:00,53.4,47.0,29.63,NW,318,9.2,9.2,79,0.00,OVC,,0.01,11.0,WeatherDisplay:10.37,2013-04-27 16:33:00,
2013-04-27 18:35:00,53.4,47.4,29.64,NW,319,7.0,7.0,80,0.00,OVC,,0.01,9.0,WeatherDisplay:10.37,2013-04-27 16:35:00,
2013-04-27 18:37:00,53.3,47.3,29.64,NNW,338,10.4,10.4,80,0.00,OVC,,0.01,9.0,WeatherDisplay:10.37,2013-04-27 16:37:00,
2013-04-27 18:38:00,53.2,47.5,29.64,NW,326,10.4,10.4,81,0.00,OVC,,0.01,9.0,WeatherDisplay:10.37,2013-04-27 16:38:00,
2013-04-27 18:41:00,53.0,47.3,29.64,NW,306,12.0,12.0,81,0.00,OVC,,0.01,7.0,WeatherDisplay:10.37,2013-04-27 16:41:00,
2013-04-27 18:46:00,52.6,47.3,29.63,NW,314,12.0,12.0,82,0.00,OVC,,0.01,5.0,WeatherDisplay:10.37,2013-04-27 16:46:00,
2013-04-27 18:51:00,52.3,47.0,29.64,NW,319,9.2,9.2,82,0.00,OVC,,0.01,5.0,WeatherDisplay:10.37,2013-04-27 16:51:00,
2013-04-27 18:56:00,51.9,46.6,29.64,NW,315,9.2,9.2,82,0.01,RA,,0.02,0.0,WeatherDisplay:10.37,2013-04-27 16:56:00,
2013-04-27 19:01:00,51.6,46.3,29.64,North,355,9.2,9.2,82,0.01,RA,,0.02,0.0,WeatherDisplay:10.37,2013-04-27 17:01:00,
2013-04-27 19:06:00,51.3,46.3,29.62,NNE,16,9.2,9.2,83,0.02,RA,,0.03,0.0,WeatherDisplay:10.37,2013-04-27 17:06:00,
2013-04-27 19:11:00,51.1,46.1,29.63,WNW,288,8.1,8.1,83,0.02,RA,,0.03,0.0,WeatherDisplay:10.37,2013-04-27 17:11:00,
2013-04-27 19:16:00,50.8,45.8,29.64,NNW,336,5.8,5.8,83,0.03,RA,,0.04,0.0,WeatherDisplay:10.37,2013-04-27 17:16:00,
2013-04-27 19:21:00,50.6,45.6,29.63,NW,320,11.5,11.5,83,0.04,RA,,0.05,0.0,WeatherDisplay:10.37,2013-04-27 17:21:00,
2013-04-27 19:26:00,50.4,45.4,29.63,NNW,336,9.2,9.2,83,0.04,RA,,0.05,0.0,WeatherDisplay:10.37,2013-04-27 17:26:00,
2013-04-27 19:31:00,50.2,45.2,29.62,WNW,292,8.1,8.1,83,0.04,OVC,,0.05,0.0,WeatherDisplay:10.37,2013-04-27 17:31:00,
2013-04-27 19:36:00,50.0,45.0,29.63,NW,325,8.1,8.1,83,0.04,OVC,,0.05,0.0,WeatherDisplay:10.37,2013-04-27 17:36:00,
2013-04-27 19:41:00,49.9,45.3,29.64,NW,315,4.0,4.0,84,0.04,OVC,,0.05,0.0,WeatherDisplay:10.37,2013-04-27 17:41:00,
2013-04-27 19:46:00,49.8,45.2,29.64,NNW,336,4.6,4.6,84,0.04,OVC,,0.05,0.0,WeatherDisplay:10.37,2013-04-27 17:46:00,
2013-04-27 19:51:00,49.6,45.0,29.64,NNE,28,6.0,6.0,84,0.05,RA,,0.06,0.0,WeatherDisplay:10.37,2013-04-27 17:51:00,
2013-04-27 19:56:00,49.4,44.8,29.65,NNW,339,6.0,6.0,84,0.04,RA,,0.06,0.0,WeatherDisplay:10.37,2013-04-27 17:56:00,
2013-04-27 20:01:00,49.4,44.8,29.65,WNW,300,5.8,5.8,84,0.04,OVC,,0.06,0.0,WeatherDisplay:10.37,2013-04-27 18:01:00,
2013-04-27 20:06:00,49.3,44.7,29.65,NW,326,7.0,7.0,84,0.03,OVC,,0.06,0.0,WeatherDisplay:10.37,2013-04-27 18:06:00,
2013-04-27 20:11:00,49.3,44.7,29.66,WNW,285,5.0,5.0,84,0.02,OVC,,0.06,0.0,WeatherDisplay:10.37,2013-04-27 18:11:00,
2013-04-27 20:16:00,49.2,44.6,29.65,WNW,294,4.6,4.6,84,0.02,RA,,0.06,0.0,WeatherDisplay:10.37,2013-04-27 18:16:00,
2013-04-27 20:21:00,49.2,44.6,29.66,West,280,6.9,6.9,84,0.02,RA,,0.06,0.0,WeatherDisplay:10.37,2013-04-27 18:21:00,
2013-04-27 20:26:00,49.1,44.2,29.65,NNW,331,8.1,8.1,83,0.02,OVC,,0.06,0.0,WeatherDisplay:10.37,2013-04-27 18:26:00,
2013-04-27 20:31:00,49.1,44.2,29.66,West,271,7.0,7.0,83,0.02,RA,,0.07,0.0,WeatherDisplay:10.37,2013-04-27 18:31:00,
2013-04-27 20:36:00,49.1,44.2,29.65,NNW,336,4.6,4.6,83,0.02,RA,,0.07,0.0,WeatherDisplay:10.37,2013-04-27 18:36:00,
2013-04-27 20:41:00,49.1,44.2,29.66,West,263,5.8,5.8,83,0.02,OVC,,0.07,0.0,WeatherDisplay:10.37,2013-04-27 18:41:00,
2013-04-27 20:46:00,49.0,44.1,29.66,NNW,334,5.8,5.8,83,0.03,RA,,0.08,0.0,WeatherDisplay:10.37,2013-04-27 18:46:00,
2013-04-27 20:51:00,48.9,44.0,29.65,NW,311,6.9,6.9,83,0.02,RA,,0.08,0.0,WeatherDisplay:10.37,2013-04-27 18:51:00,
2013-04-27 20:56:00,48.9,44.0,29.66,WNW,291,8.1,8.1,83,0.02,CLR,,0.08,0.0,WeatherDisplay:10.37,2013-04-27 18:56:00,
2013-04-27 21:01:00,48.9,44.0,29.65,NNW,347,10.4,10.4,83,0.02,CLR,,0.08,0.0,WeatherDisplay:10.37,2013-04-27 19:01:00,
2013-04-27 21:06:00,48.8,43.9,29.65,NW,315,8.1,8.1,83,0.02,CLR,,0.08,0.0,WeatherDisplay:10.37,2013-04-27 19:06:00,
2013-04-27 21:11:00,48.8,43.9,29.65,WNW,299,9.0,9.0,83,0.02,CLR,,0.08,0.0,WeatherDisplay:10.37,2013-04-27 19:11:00,
2013-04-27 21:16:00,48.8,43.9,29.66,NW,308,5.0,5.0,83,0.02,CLR,,0.08,0.0,WeatherDisplay:10.37,2013-04-27 19:16:00,
2013-04-27 21:21:00,48.8,43.9,29.66,WNW,296,9.0,9.0,83,0.02,CLR,,0.08,0.0,WeatherDisplay:10.37,2013-04-27 19:21:00,
2013-04-27 21:26:00,48.7,43.8,29.65,NW,313,9.2,9.2,83,0.02,CLR,,0.08,0.0,WeatherDisplay:10.37,2013-04-27 19:26:00,
2013-04-27 21:31:00,48.6,43.7,29.65,WNW,296,12.0,12.0,83,0.01,CLR,,0.08,0.0,WeatherDisplay:10.37,2013-04-27 19:31:00,
2013-04-27 21:36:00,48.6,43.7,29.65,NW,314,11.5,11.5,83,0.01,CLR,,0.08,0.0,WeatherDisplay:10.37,2013-04-27 19:36:00,
2013-04-27 21:41:00,48.5,43.6,29.65,NW,323,9.2,9.2,83,0.01,CLR,,0.08,0.0,WeatherDisplay:10.37,2013-04-27 19:41:00,
2013-04-27 21:46:00,48.5,43.6,29.66,NNW,327,10.4,10.4,83,0.00,CLR,,0.08,0.0,WeatherDisplay:10.37,2013-04-27 19:46:00,
2013-04-27 21:51:00,48.5,43.6,29.67,NW,320,10.0,10.0,83,0.00,CLR,,0.08,0.0,WeatherDisplay:10.37,2013-04-27 19:51:00,
2013-04-27 21:56:00,48.5,43.6,29.67,WNW,298,8.1,8.1,83,0.00,CLR,,0.08,0.0,WeatherDisplay:10.37,2013-04-27 19:56:00,
2013-04-27 22:01:00,48.5,43.6,29.67,NW,319,11.5,11.5,83,0.00,CLR,,0.08,0.0,WeatherDisplay:10.37,2013-04-27 20:01:00,
2013-04-27 22:06:00,48.5,43.6,29.67,NW,319,9.2,9.2,83,0.00,CLR,,0.08,0.0,WeatherDisplay:10.37,2013-04-27 20:06:00,
2013-04-27 22:11:00,48.5,43.6,29.67,NW,321,8.1,8.1,83,0.00,CLR,,0.08,0.0,WeatherDisplay:10.37,2013-04-27 20:11:00,
2013-04-27 22:16:00,48.5,43.6,29.68,WNW,303,11.5,11.5,83,0.00,CLR,,0.08,0.0,WeatherDisplay:10.37,2013-04-27 20:16:00,
2013-04-27 22:21:00,48.6,43.7,29.68,WNW,282,8.1,8.1,83,0.00,CLR,,0.08,0.0,WeatherDisplay:10.37,2013-04-27 20:21:00,
2013-04-27 22:26:00,48.6,43.7,29.68,WNW,285,8.1,8.1,83,0.00,CLR,,0.08,0.0,WeatherDisplay:10.37,2013-04-27 20:26:00,
2013-04-27 22:31:00,48.6,43.7,29.68,NNW,327,11.5,11.5,83,0.00,CLR,,0.08,0.0,WeatherDisplay:10.37,2013-04-27 20:31:00,
2013-04-27 22:36:00,48.5,43.9,29.68,West,272,11.5,11.5,84,0.00,CLR,,0.08,0.0,WeatherDisplay:10.37,2013-04-27 20:36:00,
2013-04-27 22:41:00,48.5,43.9,29.67,NNW,336,11.0,11.0,84,0.00,CLR,,0.08,0.0,WeatherDisplay:10.37,2013-04-27 20:41:00,
2013-04-27 22:46:00,48.5,43.9,29.67,North,355,11.5,11.5,84,0.00,CLR,,0.08,0.0,WeatherDisplay:10.37,2013-04-27 20:46:00,
2013-04-27 22:51:00,48.4,43.8,29.67,North,350,11.5,11.5,84,0.00,CLR,,0.08,0.0,WeatherDisplay:10.37,2013-04-27 20:51:00,
2013-04-27 22:56:00,48.4,43.8,29.67,NNW,339,9.2,9.2,84,0.00,CLR,,0.08,0.0,WeatherDisplay:10.37,2013-04-27 20:56:00,
2013-04-27 23:01:00,48.4,43.8,29.68,NW,315,11.0,11.0,84,0.00,CLR,,0.08,0.0,WeatherDisplay:10.37,2013-04-27 21:01:00,
2013-04-27 23:06:00,48.4,43.8,29.68,NW,325,12.7,12.7,84,0.00,CLR,,0.08,0.0,WeatherDisplay:10.37,2013-04-27 21:06:00,
2013-04-27 23:11:00,48.4,43.8,29.68,NNW,333,10.4,10.4,84,0.00,CLR,,0.08,0.0,WeatherDisplay:10.37,2013-04-27 21:11:00,
2013-04-27 23:16:00,48.3,43.7,29.68,NW,320,11.5,11.5,84,0.00,CLR,,0.08,0.0,WeatherDisplay:10.37,2013-04-27 21:16:00,
2013-04-27 23:21:00,48.3,43.7,29.68,WNW,282,11.5,11.5,84,0.00,CLR,,0.08,0.0,WeatherDisplay:10.37,2013-04-27 21:21:00,
2013-04-27 23:26:00,48.2,43.6,29.69,NW,306,6.9,6.9,84,0.00,CLR,,0.08,0.0,WeatherDisplay:10.37,2013-04-27 21:26:00,
2013-04-27 23:31:00,48.2,43.6,29.70,WNW,283,9.2,9.2,84,0.00,CLR,,0.08,0.0,WeatherDisplay:10.37,2013-04-27 21:31:00,
2013-04-27 23:36:00,48.2,43.6,29.70,WNW,287,12.7,12.7,84,0.00,CLR,,0.08,0.0,WeatherDisplay:10.37,2013-04-27 21:36:00,
2013-04-27 23:41:00,48.1,43.5,29.70,NW,311,11.0,11.0,84,0.01,RA,,0.09,0.0,WeatherDisplay:10.37,2013-04-27 21:41:00,
2013-04-27 23:46:00,48.0,43.4,29.71,West,269,10.4,10.4,84,0.02,RA,,0.09,0.0,WeatherDisplay:10.37,2013-04-27 21:46:00,
2013-04-27 23:51:00,48.0,43.4,29.72,West,274,9.2,9.2,84,0.02,RA,,0.09,0.0,WeatherDisplay:10.37,2013-04-27 21:51:00,
2013-04-27 23:56:00,47.8,43.2,29.72,WNW,282,4.0,4.0,84,0.02,RA,,0.10,0.0,WeatherDisplay:10.37,2013-04-27 21:56:00,